sensor_id;sensor_type;location;lat;lon;timestamp;pressure;altitude;pressure_sealevel;temperature;humidity
68376;BME280;55318;52.068;5.188;2023-03-24T00:01:01;99780.0;;;13.08;100.0
68376;BME280;55318;52.068;5.188;2023-03-24T00:02:38;99773.0;;;13.06;100.0
68376;BME280;55318;52.068;5.188;2023-03-24T00:05:54;99772.0;;;13.05;100.0
68376;BME280;55318;52.068;5.188;2023-03-24T00:07:31;99768.0;;;13.06;100.0
68376;BME280;55318;52.068;5.188;2023-03-24T00:09:07;99768.0;;;13.06;100.0
68376;BME280;55318;52.068;5.188;2023-03-24T00:10:44;99760.0;;;13.12;100.0
68376;BME280;55318;52.068;5.188;2023-03-24T00:13:56;99761.0;;;13.14;100.0
68376;BME280;55318;52.068;5.188;2023-03-24T00:15:32;99745.0;;;13.15;100.0
68376;BME280;55318;52.068;5.188;2023-03-24T00:17:09;99753.0;;;13.14;100.0
68376;BME280;55318;52.068;5.188;2023-03-24T00:20:23;99748.0;;;13.1;100.0
68376;BME280;55318;52.068;5.188;2023-03-24T00:22:00;99730.0;;;13.11;100.0
68376;BME280;55318;52.068;5.188;2023-03-24T00:23:36;99740.0;;;13.06;100.0
68376;BME280;55318;52.068;5.188;2023-03-24T00:26:49;99731.0;;;13.12;100.0
68376;BME280;55318;52.068;5.188;2023-03-24T00:28:25;99728.0;;;13.09;100.0
68376;BME280;55318;52.068;5.188;2023-03-24T00:30:04;99721.0;;;13.15;100.0
68376;BME280;55318;52.068;5.188;2023-03-24T00:31:40;99721.0;;;13.16;100.0
68376;BME280;55318;52.068;5.188;2023-03-24T00:34:53;99714.0;;;13.13;100.0
68376;BME280;55318;52.068;5.188;2023-03-24T00:36:29;99724.0;;;13.04;100.0
68376;BME280;55318;52.068;5.188;2023-03-24T00:38:05;99712.0;;;13.01;100.0
68376;BME280;55318;52.068;5.188;2023-03-24T00:41:18;99703.0;;;13.09;100.0
68376;BME280;55318;52.068;5.188;2023-03-24T00:42:55;99707.0;;;13.06;100.0
68376;BME280;55318;52.068;5.188;2023-03-24T00:44:31;99708.0;;;13.07;100.0
68376;BME280;55318;52.068;5.188;2023-03-24T00:47:47;99697.0;;;13.15;100.0
68376;BME280;55318;52.068;5.188;2023-03-24T00:49:28;99705.0;;;13.19;100.0
68376;BME280;55318;52.068;5.188;2023-03-24T00:51:06;99695.0;;;13.24;100.0
68376;BME280;55318;52.068;5.188;2023-03-24T00:52:43;99697.0;;;13.22;100.0
68376;BME280;55318;52.068;5.188;2023-03-24T00:55:56;99698.0;;;13.21;100.0
68376;BME280;55318;52.068;5.188;2023-03-24T00:57:33;99684.0;;;13.17;100.0
68376;BME280;55318;52.068;5.188;2023-03-24T00:59:09;99682.0;;;13.25;100.0
68376;BME280;55318;52.068;5.188;2023-03-24T01:02:25;99693.0;;;13.21;100.0
68376;BME280;55318;52.068;5.188;2023-03-24T01:04:02;99678.0;;;13.3;100.0
68376;BME280;55318;52.068;5.188;2023-03-24T01:05:40;99680.0;;;13.3;100.0
68376;BME280;55318;52.068;5.188;2023-03-24T01:07:16;99674.0;;;13.4;100.0
68376;BME280;55318;52.068;5.188;2023-03-24T01:10:32;99675.0;;;13.4;100.0
68376;BME280;55318;52.068;5.188;2023-03-24T01:12:10;99661.0;;;13.43;100.0
68376;BME280;55318;52.068;5.188;2023-03-24T01:13:46;99667.0;;;13.44;100.0
68376;BME280;55318;52.068;5.188;2023-03-24T01:17:06;99666.0;;;13.48;100.0
68376;BME280;55318;52.068;5.188;2023-03-24T01:18:43;99663.0;;;13.44;100.0
68376;BME280;55318;52.068;5.188;2023-03-24T01:20:20;99676.0;;;13.41;100.0
68376;BME280;55318;52.068;5.188;2023-03-24T01:21:58;99662.0;;;13.5;100.0
68376;BME280;55318;52.068;5.188;2023-03-24T01:25:11;99660.0;;;13.38;100.0
68376;BME280;55318;52.068;5.188;2023-03-24T01:26:48;99662.0;;;13.42;100.0
68376;BME280;55318;52.068;5.188;2023-03-24T01:28:24;99651.0;;;13.4;100.0
68376;BME280;55318;52.068;5.188;2023-03-24T01:31:39;99653.0;;;13.37;100.0
68376;BME280;55318;52.068;5.188;2023-03-24T01:33:15;99649.0;;;13.4;100.0
68376;BME280;55318;52.068;5.188;2023-03-24T01:34:52;99649.0;;;13.4;100.0
68376;BME280;55318;52.068;5.188;2023-03-24T01:36:28;99641.0;;;13.42;100.0
68376;BME280;55318;52.068;5.188;2023-03-24T01:39:42;99638.0;;;13.5;100.0
68376;BME280;55318;52.068;5.188;2023-03-24T01:41:18;99635.0;;;13.52;100.0
68376;BME280;55318;52.068;5.188;2023-03-24T01:42:55;99632.0;;;13.52;100.0
68376;BME280;55318;52.068;5.188;2023-03-24T01:46:15;99636.0;;;13.61;100.0
68376;BME280;55318;52.068;5.188;2023-03-24T01:47:52;99628.0;;;13.54;100.0
68376;BME280;55318;52.068;5.188;2023-03-24T01:49:31;99630.0;;;13.52;100.0
68376;BME280;55318;52.068;5.188;2023-03-24T01:51:13;99619.0;;;13.5;100.0
68376;BME280;55318;52.068;5.188;2023-03-24T01:54:30;99630.0;;;13.53;100.0
68376;BME280;55318;52.068;5.188;2023-03-24T01:56:09;99631.0;;;13.57;100.0
68376;BME280;55318;52.068;5.188;2023-03-24T01:57:49;99631.0;;;13.54;100.0
68376;BME280;55318;52.068;5.188;2023-03-24T01:59:30;99630.0;;;13.58;100.0
68376;BME280;55318;52.068;5.188;2023-03-24T02:02:49;99615.0;;;13.65;100.0
68376;BME280;55318;52.068;5.188;2023-03-24T02:04:25;99625.0;;;13.62;100.0
68376;BME280;55318;52.068;5.188;2023-03-24T02:06:01;99622.0;;;13.6;100.0
68376;BME280;55318;52.068;5.188;2023-03-24T02:09:21;99628.0;;;13.62;100.0
68376;BME280;55318;52.068;5.188;2023-03-24T02:10:58;99631.0;;;13.57;100.0
68376;BME280;55318;52.068;5.188;2023-03-24T02:12:35;99630.0;;;13.56;100.0
68376;BME280;55318;52.068;5.188;2023-03-24T02:14:11;99647.0;;;13.62;100.0
68376;BME280;55318;52.068;5.188;2023-03-24T02:17:55;99657.0;;;13.52;100.0
68376;BME280;55318;52.068;5.188;2023-03-24T02:20:06;99670.0;;;13.53;100.0
68376;BME280;55318;52.068;5.188;2023-03-24T02:25:50;99681.0;;;13.41;100.0
68376;BME280;55318;52.068;5.188;2023-03-24T02:27:47;99673.0;;;13.28;100.0
68376;BME280;55318;52.068;5.188;2023-03-24T02:30:05;99683.0;;;13.28;100.0
68376;BME280;55318;52.068;5.188;2023-03-24T02:41:45;99715.0;;;13.29;99.42
68376;BME280;55318;52.068;5.188;2023-03-24T02:43:36;99716.0;;;13.45;99.24
68376;BME280;55318;52.068;5.188;2023-03-24T02:47:11;99716.0;;;13.23;98.22
68376;BME280;55318;52.068;5.188;2023-03-24T02:49:01;99720.0;;;13.36;95.76
68376;BME280;55318;52.068;5.188;2023-03-24T02:50:49;99730.0;;;13.25;94.75
68376;BME280;55318;52.068;5.188;2023-03-24T02:52:31;99732.0;;;13.2;93.42
68376;BME280;55318;52.068;5.188;2023-03-24T02:54:15;99721.0;;;13.27;92.9
68376;BME280;55318;52.068;5.188;2023-03-24T02:55:56;99744.0;;;13.26;91.87
68376;BME280;55318;52.068;5.188;2023-03-24T02:59:21;99755.0;;;13.14;90.44
68376;BME280;55318;52.068;5.188;2023-03-24T03:01:05;99765.0;;;13.19;89.81
68376;BME280;55318;52.068;5.188;2023-03-24T03:02:47;99760.0;;;13.22;89.28
68376;BME280;55318;52.068;5.188;2023-03-24T03:04:30;99764.0;;;13.1;88.63
68376;BME280;55318;52.068;5.188;2023-03-24T03:07:50;99766.0;;;12.94;88.42
68376;BME280;55318;52.068;5.188;2023-03-24T03:09:33;99778.0;;;13.01;88.25
68376;BME280;55318;52.068;5.188;2023-03-24T03:11:13;99782.0;;;12.8;87.97
68376;BME280;55318;52.068;5.188;2023-03-24T03:12:53;99771.0;;;12.74;88.41
68376;BME280;55318;52.068;5.188;2023-03-24T03:16:17;99770.0;;;12.7;87.29
68376;BME280;55318;52.068;5.188;2023-03-24T03:18:00;99778.0;;;12.6;87.47
68376;BME280;55318;52.068;5.188;2023-03-24T03:19:43;99785.0;;;12.6;86.8
68376;BME280;55318;52.068;5.188;2023-03-24T03:21:22;99780.0;;;12.55;87.52
68376;BME280;55318;52.068;5.188;2023-03-24T03:24:45;99791.0;;;12.58;86.58
68376;BME280;55318;52.068;5.188;2023-03-24T03:26:23;99805.0;;;12.58;86.26
68376;BME280;55318;52.068;5.188;2023-03-24T03:28:02;99788.0;;;12.51;86.51
68376;BME280;55318;52.068;5.188;2023-03-24T03:29:43;99790.0;;;12.45;86.89
68376;BME280;55318;52.068;5.188;2023-03-24T03:33:07;99795.0;;;12.47;87.02
68376;BME280;55318;52.068;5.188;2023-03-24T03:34:48;99805.0;;;12.48;87.43
68376;BME280;55318;52.068;5.188;2023-03-24T03:36:29;99813.0;;;12.42;87.63
68376;BME280;55318;52.068;5.188;2023-03-24T03:38:14;99810.0;;;12.41;87.6
68376;BME280;55318;52.068;5.188;2023-03-24T03:39:55;99801.0;;;12.32;88.02
68376;BME280;55318;52.068;5.188;2023-03-24T03:43:09;99819.0;;;12.15;88.63
68376;BME280;55318;52.068;5.188;2023-03-24T03:44:45;99816.0;;;12.27;88.94
68376;BME280;55318;52.068;5.188;2023-03-24T03:46:22;99813.0;;;12.36;89.21
68376;BME280;55318;52.068;5.188;2023-03-24T03:49:35;99831.0;;;12.45;89.53
68376;BME280;55318;52.068;5.188;2023-03-24T03:51:11;99835.0;;;12.45;89.14
68376;BME280;55318;52.068;5.188;2023-03-24T03:52:49;99837.0;;;12.21;89.66
68376;BME280;55318;52.068;5.188;2023-03-24T03:56:06;99842.0;;;12.36;89.61
68376;BME280;55318;52.068;5.188;2023-03-24T03:57:43;99852.0;;;12.34;89.73
68376;BME280;55318;52.068;5.188;2023-03-24T03:59:26;99852.0;;;12.2;90.14
68376;BME280;55318;52.068;5.188;2023-03-24T04:01:03;99852.0;;;12.26;90.3
68376;BME280;55318;52.068;5.188;2023-03-24T04:04:42;99856.0;;;12.29;89.84
68376;BME280;55318;52.068;5.188;2023-03-24T04:07:11;99851.0;;;12.05;90.64
68376;BME280;55318;52.068;5.188;2023-03-24T04:10:48;99853.0;;;12.19;90.23
68376;BME280;55318;52.068;5.188;2023-03-24T04:12:40;99861.0;;;12.27;90.21
68376;BME280;55318;52.068;5.188;2023-03-24T04:15:25;99857.0;;;12.03;90.42
68376;BME280;55318;52.068;5.188;2023-03-24T04:17:16;99861.0;;;11.83;90.64
68376;BME280;55318;52.068;5.188;2023-03-24T04:19:11;99860.0;;;11.83;91.63
68376;BME280;55318;52.068;5.188;2023-03-24T04:20:57;99869.0;;;11.9;91.75
68376;BME280;55318;52.068;5.188;2023-03-24T04:22:53;99878.0;;;11.88;91.89
68376;BME280;55318;52.068;5.188;2023-03-24T04:24:42;99885.0;;;11.94;91.66
68376;BME280;55318;52.068;5.188;2023-03-24T04:26:26;99882.0;;;11.63;93.03
68376;BME280;55318;52.068;5.188;2023-03-24T04:28:12;99883.0;;;11.71;93.15
68376;BME280;55318;52.068;5.188;2023-03-24T04:31:45;99900.0;;;11.76;93.1
68376;BME280;55318;52.068;5.188;2023-03-24T04:33:32;99890.0;;;11.64;93.05
68376;BME280;55318;52.068;5.188;2023-03-24T04:35:18;99884.0;;;11.69;92.94
68376;BME280;55318;52.068;5.188;2023-03-24T04:37:01;99890.0;;;11.76;92.63
68376;BME280;55318;52.068;5.188;2023-03-24T04:38:44;99899.0;;;11.84;92.66
68376;BME280;55318;52.068;5.188;2023-03-24T04:42:01;99899.0;;;11.85;92.01
68376;BME280;55318;52.068;5.188;2023-03-24T04:43:39;99903.0;;;11.66;91.98
68376;BME280;55318;52.068;5.188;2023-03-24T04:45:16;99905.0;;;11.63;91.58
68376;BME280;55318;52.068;5.188;2023-03-24T04:46:55;99906.0;;;11.55;91.44
68376;BME280;55318;52.068;5.188;2023-03-24T04:50:10;99908.0;;;11.6;91.67
68376;BME280;55318;52.068;5.188;2023-03-24T04:51:47;99915.0;;;11.55;91.0
68376;BME280;55318;52.068;5.188;2023-03-24T04:53:24;99916.0;;;11.71;90.67
68376;BME280;55318;52.068;5.188;2023-03-24T04:56:48;99930.0;;;11.68;90.58
68376;BME280;55318;52.068;5.188;2023-03-24T04:58:25;99925.0;;;11.67;89.47
68376;BME280;55318;52.068;5.188;2023-03-24T05:00:01;99931.0;;;11.77;89.26
68376;BME280;55318;52.068;5.188;2023-03-24T05:01:37;99936.0;;;11.78;89.27
68376;BME280;55318;52.068;5.188;2023-03-24T05:04:52;99941.0;;;11.63;89.05
68376;BME280;55318;52.068;5.188;2023-03-24T05:06:28;99945.0;;;11.7;88.67
68376;BME280;55318;52.068;5.188;2023-03-24T05:08:04;99955.0;;;11.83;88.46
68376;BME280;55318;52.068;5.188;2023-03-24T05:11:17;99952.0;;;11.73;88.46
68376;BME280;55318;52.068;5.188;2023-03-24T05:12:53;99943.0;;;11.85;87.89
68376;BME280;55318;52.068;5.188;2023-03-24T05:14:29;99948.0;;;11.58;87.95
68376;BME280;55318;52.068;5.188;2023-03-24T05:16:06;99958.0;;;11.55;88.26
68376;BME280;55318;52.068;5.188;2023-03-24T05:19:19;99966.0;;;11.57;88.2
68376;BME280;55318;52.068;5.188;2023-03-24T05:20:55;99971.0;;;11.65;88.14
68376;BME280;55318;52.068;5.188;2023-03-24T05:22:31;99977.0;;;11.5;88.41
68376;BME280;55318;52.068;5.188;2023-03-24T05:25:45;99980.0;;;11.65;88.65
68376;BME280;55318;52.068;5.188;2023-03-24T05:27:21;99970.0;;;11.59;88.95
68376;BME280;55318;52.068;5.188;2023-03-24T05:28:58;99964.0;;;11.44;89.38
68376;BME280;55318;52.068;5.188;2023-03-24T05:32:10;99974.0;;;11.53;89.48
68376;BME280;55318;52.068;5.188;2023-03-24T05:33:46;99980.0;;;11.35;90.37
68376;BME280;55318;52.068;5.188;2023-03-24T05:35:22;99983.0;;;11.45;90.7
68376;BME280;55318;52.068;5.188;2023-03-24T05:38:35;99984.0;;;11.51;90.42
68376;BME280;55318;52.068;5.188;2023-03-24T05:40:11;99978.0;;;11.55;90.33
68376;BME280;55318;52.068;5.188;2023-03-24T05:41:48;99994.0;;;11.53;90.72
68376;BME280;55318;52.068;5.188;2023-03-24T05:43:24;99994.0;;;11.58;90.25
68376;BME280;55318;52.068;5.188;2023-03-24T05:46:37;99994.0;;;11.44;90.83
68376;BME280;55318;52.068;5.188;2023-03-24T05:48:13;99994.0;;;11.38;91.18
68376;BME280;55318;52.068;5.188;2023-03-24T05:49:49;99997.0;;;11.54;91.12
68376;BME280;55318;52.068;5.188;2023-03-24T05:53:02;99998.0;;;11.41;91.44
68376;BME280;55318;52.068;5.188;2023-03-24T05:54:38;100003.0;;;11.43;91.25
68376;BME280;55318;52.068;5.188;2023-03-24T05:56:15;100002.0;;;11.68;90.63
68376;BME280;55318;52.068;5.188;2023-03-24T05:59:28;100001.0;;;11.52;91.03
68376;BME280;55318;52.068;5.188;2023-03-24T06:01:06;100007.0;;;11.67;90.65
68376;BME280;55318;52.068;5.188;2023-03-24T06:02:43;100008.0;;;11.67;90.0
68376;BME280;55318;52.068;5.188;2023-03-24T06:04:21;100010.0;;;11.67;90.34
68376;BME280;55318;52.068;5.188;2023-03-24T06:07:35;100010.0;;;11.57;90.26
68376;BME280;55318;52.068;5.188;2023-03-24T06:09:14;100018.0;;;11.65;90.28
68376;BME280;55318;52.068;5.188;2023-03-24T06:10:50;100022.0;;;11.78;89.79
68376;BME280;55318;52.068;5.188;2023-03-24T06:14:03;100033.0;;;11.56;90.29
68376;BME280;55318;52.068;5.188;2023-03-24T06:15:39;100024.0;;;11.52;90.39
68376;BME280;55318;52.068;5.188;2023-03-24T06:17:15;100022.0;;;11.69;89.83
68376;BME280;55318;52.068;5.188;2023-03-24T06:18:51;100025.0;;;11.69;89.81
68376;BME280;55318;52.068;5.188;2023-03-24T06:22:04;100020.0;;;11.76;89.17
68376;BME280;55318;52.068;5.188;2023-03-24T06:23:40;100027.0;;;11.78;89.2
68376;BME280;55318;52.068;5.188;2023-03-24T06:25:17;100023.0;;;11.73;88.73
68376;BME280;55318;52.068;5.188;2023-03-24T06:28:30;100032.0;;;11.64;88.88
68376;BME280;55318;52.068;5.188;2023-03-24T06:30:07;100028.0;;;11.59;89.59
68376;BME280;55318;52.068;5.188;2023-03-24T06:31:43;100031.0;;;11.68;89.35
68376;BME280;55318;52.068;5.188;2023-03-24T06:34:55;100031.0;;;11.77;88.88
68376;BME280;55318;52.068;5.188;2023-03-24T06:36:32;100032.0;;;11.77;89.07
68376;BME280;55318;52.068;5.188;2023-03-24T06:38:08;100033.0;;;11.85;88.92
68376;BME280;55318;52.068;5.188;2023-03-24T06:41:20;100033.0;;;11.85;88.83
68376;BME280;55318;52.068;5.188;2023-03-24T06:42:57;100036.0;;;11.77;88.54
68376;BME280;55318;52.068;5.188;2023-03-24T06:44:33;100045.0;;;11.78;88.68
68376;BME280;55318;52.068;5.188;2023-03-24T06:46:09;100042.0;;;11.78;88.6
68376;BME280;55318;52.068;5.188;2023-03-24T06:49:23;100046.0;;;11.79;88.6
68376;BME280;55318;52.068;5.188;2023-03-24T06:51:01;100050.0;;;11.72;89.24
68376;BME280;55318;52.068;5.188;2023-03-24T06:52:37;100055.0;;;11.79;88.81
68376;BME280;55318;52.068;5.188;2023-03-24T06:55:49;100055.0;;;11.77;88.94
68376;BME280;55318;52.068;5.188;2023-03-24T06:57:25;100059.0;;;11.79;88.36
68376;BME280;55318;52.068;5.188;2023-03-24T06:59:02;100058.0;;;11.72;88.41
68376;BME280;55318;52.068;5.188;2023-03-24T07:02:15;100065.0;;;11.82;88.41
68376;BME280;55318;52.068;5.188;2023-03-24T07:03:51;100067.0;;;11.91;88.47
68376;BME280;55318;52.068;5.188;2023-03-24T07:05:28;100065.0;;;11.79;87.94
68376;BME280;55318;52.068;5.188;2023-03-24T07:07:04;100085.0;;;11.9;88.0
68376;BME280;55318;52.068;5.188;2023-03-24T07:10:17;100069.0;;;11.88;87.35
68376;BME280;55318;52.068;5.188;2023-03-24T07:11:53;100081.0;;;12.07;87.04
68376;BME280;55318;52.068;5.188;2023-03-24T07:13:29;100073.0;;;12.06;87.02
68376;BME280;55318;52.068;5.188;2023-03-24T07:16:43;100067.0;;;12.06;86.31
68376;BME280;55318;52.068;5.188;2023-03-24T07:18:19;100088.0;;;12.1;86.13
68376;BME280;55318;52.068;5.188;2023-03-24T07:19:55;100099.0;;;11.86;86.61
68376;BME280;55318;52.068;5.188;2023-03-24T07:23:08;100097.0;;;12.03;87.13
68376;BME280;55318;52.068;5.188;2023-03-24T07:24:44;100100.0;;;12.0;86.77
68376;BME280;55318;52.068;5.188;2023-03-24T07:26:20;100102.0;;;12.1;85.82
68376;BME280;55318;52.068;5.188;2023-03-24T07:27:56;100103.0;;;12.08;86.29
68376;BME280;55318;52.068;5.188;2023-03-24T07:31:08;100110.0;;;12.21;85.99
68376;BME280;55318;52.068;5.188;2023-03-24T07:32:45;100103.0;;;12.36;85.72
68376;BME280;55318;52.068;5.188;2023-03-24T07:34:21;100107.0;;;12.39;85.65
68376;BME280;55318;52.068;5.188;2023-03-24T07:37:33;100099.0;;;12.3;85.85
68376;BME280;55318;52.068;5.188;2023-03-24T07:39:09;100105.0;;;12.24;85.87
68376;BME280;55318;52.068;5.188;2023-03-24T07:40:44;100105.0;;;12.34;85.57
68376;BME280;55318;52.068;5.188;2023-03-24T07:43:57;100108.0;;;12.47;85.6
68376;BME280;55318;52.068;5.188;2023-03-24T07:45:33;100112.0;;;12.52;85.08
68376;BME280;55318;52.068;5.188;2023-03-24T07:47:09;100122.0;;;12.63;84.34
68376;BME280;55318;52.068;5.188;2023-03-24T07:50:21;100124.0;;;12.5;85.2
68376;BME280;55318;52.068;5.188;2023-03-24T07:51:57;100119.0;;;12.57;84.87
68376;BME280;55318;52.068;5.188;2023-03-24T07:53:33;100125.0;;;12.55;84.76
68376;BME280;55318;52.068;5.188;2023-03-24T07:55:10;100123.0;;;12.62;83.91
68376;BME280;55318;52.068;5.188;2023-03-24T07:58:23;100137.0;;;12.78;83.55
68376;BME280;55318;52.068;5.188;2023-03-24T07:59:59;100124.0;;;12.72;82.81
68376;BME280;55318;52.068;5.188;2023-03-24T08:01:36;100137.0;;;12.8;82.67
68376;BME280;55318;52.068;5.188;2023-03-24T08:04:49;100142.0;;;12.7;83.22
68376;BME280;55318;52.068;5.188;2023-03-24T08:06:26;100137.0;;;12.76;82.94
68376;BME280;55318;52.068;5.188;2023-03-24T08:08:02;100135.0;;;12.81;83.3
68376;BME280;55318;52.068;5.188;2023-03-24T08:11:14;100141.0;;;12.96;82.79
68376;BME280;55318;52.068;5.188;2023-03-24T08:12:50;100147.0;;;12.98;82.64
68376;BME280;55318;52.068;5.188;2023-03-24T08:14:28;100139.0;;;13.04;82.06
68376;BME280;55318;52.068;5.188;2023-03-24T08:16:04;100142.0;;;13.26;82.18
68376;BME280;55318;52.068;5.188;2023-03-24T08:19:16;100139.0;;;13.07;80.81
68376;BME280;55318;52.068;5.188;2023-03-24T08:20:54;100145.0;;;13.16;80.39
68376;BME280;55318;52.068;5.188;2023-03-24T08:22:31;100148.0;;;13.11;80.22
68376;BME280;55318;52.068;5.188;2023-03-24T08:25:44;100143.0;;;13.13;80.05
68376;BME280;55318;52.068;5.188;2023-03-24T08:27:20;100150.0;;;13.46;79.98
68376;BME280;55318;52.068;5.188;2023-03-24T08:28:56;100158.0;;;13.58;79.42
68376;BME280;55318;52.068;5.188;2023-03-24T08:32:08;100145.0;;;13.76;76.3
68376;BME280;55318;52.068;5.188;2023-03-24T08:33:44;100146.0;;;13.83;77.52
68376;BME280;55318;52.068;5.188;2023-03-24T08:35:23;100146.0;;;14.09;76.64
68376;BME280;55318;52.068;5.188;2023-03-24T08:37:03;100145.0;;;14.16;75.41
68376;BME280;55318;52.068;5.188;2023-03-24T08:40:17;100153.0;;;14.27;75.02
68376;BME280;55318;52.068;5.188;2023-03-24T08:41:54;100152.0;;;14.15;74.56
68376;BME280;55318;52.068;5.188;2023-03-24T08:43:30;100161.0;;;14.25;75.06
68376;BME280;55318;52.068;5.188;2023-03-24T08:46:47;100164.0;;;14.42;74.02
68376;BME280;55318;52.068;5.188;2023-03-24T08:48:25;100164.0;;;14.5;73.58
68376;BME280;55318;52.068;5.188;2023-03-24T08:50:04;100170.0;;;14.34;73.55
68376;BME280;55318;52.068;5.188;2023-03-24T08:51:41;100171.0;;;14.33;73.95
68376;BME280;55318;52.068;5.188;2023-03-24T08:56:31;100176.0;;;14.52;73.63
68376;BME280;55318;52.068;5.188;2023-03-24T08:58:07;100178.0;;;13.98;73.42
68376;BME280;55318;52.068;5.188;2023-03-24T09:01:24;100182.0;;;14.01;74.38
68376;BME280;55318;52.068;5.188;2023-03-24T09:03:00;100189.0;;;14.13;74.59
68376;BME280;55318;52.068;5.188;2023-03-24T09:04:36;100186.0;;;14.24;74.44
68376;BME280;55318;52.068;5.188;2023-03-24T09:06:13;100185.0;;;14.17;73.95
68376;BME280;55318;52.068;5.188;2023-03-24T09:09:26;100194.0;;;14.21;74.78
68376;BME280;55318;52.068;5.188;2023-03-24T09:11:03;100198.0;;;14.05;75.06
68376;BME280;55318;52.068;5.188;2023-03-24T09:12:41;100190.0;;;14.02;75.59
68376;BME280;55318;52.068;5.188;2023-03-24T09:15:58;100193.0;;;13.97;74.83
68376;BME280;55318;52.068;5.188;2023-03-24T09:17:35;100203.0;;;14.04;74.86
68376;BME280;55318;52.068;5.188;2023-03-24T09:19:11;100205.0;;;14.23;74.53
68376;BME280;55318;52.068;5.188;2023-03-24T09:22:25;100206.0;;;14.45;74.95
68376;BME280;55318;52.068;5.188;2023-03-24T09:24:01;100202.0;;;14.76;75.41
68376;BME280;55318;52.068;5.188;2023-03-24T09:25:37;100205.0;;;14.64;72.3
68376;BME280;55318;52.068;5.188;2023-03-24T09:27:14;100206.0;;;14.98;73.62
68376;BME280;55318;52.068;5.188;2023-03-24T09:30:27;100208.0;;;15.18;72.44
68376;BME280;55318;52.068;5.188;2023-03-24T09:32:03;100212.0;;;15.32;71.86
68376;BME280;55318;52.068;5.188;2023-03-24T09:33:39;100206.0;;;14.97;70.91
68376;BME280;55318;52.068;5.188;2023-03-24T09:36:52;100214.0;;;15.08;68.83
68376;BME280;55318;52.068;5.188;2023-03-24T09:38:28;100217.0;;;14.97;68.74
68376;BME280;55318;52.068;5.188;2023-03-24T09:40:06;100223.0;;;15.09;70.17
68376;BME280;55318;52.068;5.188;2023-03-24T09:43:25;100202.0;;;14.87;69.31
68376;BME280;55318;52.068;5.188;2023-03-24T09:45:06;100217.0;;;14.99;69.16
68376;BME280;55318;52.068;5.188;2023-03-24T09:46:49;100223.0;;;14.83;68.23
68376;BME280;55318;52.068;5.188;2023-03-24T09:48:33;100215.0;;;14.94;66.62
68376;BME280;55318;52.068;5.188;2023-03-24T09:50:17;100207.0;;;15.09;68.66
68376;BME280;55318;52.068;5.188;2023-03-24T09:53:42;100236.0;;;15.02;67.89
68376;BME280;55318;52.068;5.188;2023-03-24T09:55:24;100223.0;;;15.07;68.14
68376;BME280;55318;52.068;5.188;2023-03-24T09:57:05;100225.0;;;15.11;67.88
68376;BME280;55318;52.068;5.188;2023-03-24T09:58:54;100232.0;;;15.36;68.19
68376;BME280;55318;52.068;5.188;2023-03-24T10:00:35;100240.0;;;15.56;67.69
68376;BME280;55318;52.068;5.188;2023-03-24T10:03:55;100231.0;;;15.6;65.87
68376;BME280;55318;52.068;5.188;2023-03-24T10:05:36;100240.0;;;15.59;66.33
68376;BME280;55318;52.068;5.188;2023-03-24T10:07:21;100230.0;;;15.59;66.13
68376;BME280;55318;52.068;5.188;2023-03-24T10:09:14;100236.0;;;15.8;64.75
68376;BME280;55318;52.068;5.188;2023-03-24T10:12:39;100238.0;;;15.56;63.54
68376;BME280;55318;52.068;5.188;2023-03-24T10:14:26;100237.0;;;15.14;64.78
68376;BME280;55318;52.068;5.188;2023-03-24T10:16:20;100228.0;;;15.0;65.41
68376;BME280;55318;52.068;5.188;2023-03-24T10:18:22;100241.0;;;14.79;66.69
68376;BME280;55318;52.068;5.188;2023-03-24T10:20:15;100236.0;;;14.72;66.27
68376;BME280;55318;52.068;5.188;2023-03-24T10:22:01;100240.0;;;14.72;67.47
68376;BME280;55318;52.068;5.188;2023-03-24T10:23:46;100235.0;;;14.35;68.94
68376;BME280;55318;52.068;5.188;2023-03-24T10:27:25;100231.0;;;14.58;71.03
68376;BME280;55318;52.068;5.188;2023-03-24T10:29:24;100230.0;;;14.72;71.08
68376;BME280;55318;52.068;5.188;2023-03-24T10:31:08;100232.0;;;14.62;70.66
68376;BME280;55318;52.068;5.188;2023-03-24T10:32:45;100238.0;;;14.52;69.78
68376;BME280;55318;52.068;5.188;2023-03-24T10:34:26;100232.0;;;14.39;69.87
68376;BME280;55318;52.068;5.188;2023-03-24T10:37:44;100234.0;;;14.29;69.98
68376;BME280;55318;52.068;5.188;2023-03-24T10:39:20;100227.0;;;14.32;69.25
68376;BME280;55318;52.068;5.188;2023-03-24T10:40:57;100226.0;;;14.16;70.33
68376;BME280;55318;52.068;5.188;2023-03-24T10:42:34;100232.0;;;14.36;70.5
68376;BME280;55318;52.068;5.188;2023-03-24T10:45:51;100242.0;;;14.27;69.89
68376;BME280;55318;52.068;5.188;2023-03-24T10:47:29;100224.0;;;14.13;69.28
68376;BME280;55318;52.068;5.188;2023-03-24T10:49:08;100228.0;;;14.09;67.91
68376;BME280;55318;52.068;5.188;2023-03-24T10:50:51;100235.0;;;14.1;69.08
68376;BME280;55318;52.068;5.188;2023-03-24T10:54:16;100240.0;;;14.07;68.64
68376;BME280;55318;52.068;5.188;2023-03-24T10:55:53;100232.0;;;14.04;69.61
68376;BME280;55318;52.068;5.188;2023-03-24T10:57:30;100245.0;;;13.95;70.7
68376;BME280;55318;52.068;5.188;2023-03-24T11:00:54;100240.0;;;13.96;71.36
68376;BME280;55318;52.068;5.188;2023-03-24T11:02:33;100246.0;;;14.13;71.99
68376;BME280;55318;52.068;5.188;2023-03-24T11:04:13;100239.0;;;14.25;72.12
68376;BME280;55318;52.068;5.188;2023-03-24T11:05:57;100243.0;;;14.35;72.61
68376;BME280;55318;52.068;5.188;2023-03-24T11:07:35;100237.0;;;14.46;72.72
68376;BME280;55318;52.068;5.188;2023-03-24T11:10:55;100238.0;;;14.44;71.38
68376;BME280;55318;52.068;5.188;2023-03-24T11:12:34;100245.0;;;14.66;72.49
68376;BME280;55318;52.068;5.188;2023-03-24T11:14:21;100235.0;;;14.65;73.05
68376;BME280;55318;52.068;5.188;2023-03-24T11:16:07;100248.0;;;14.59;71.84
68376;BME280;55318;52.068;5.188;2023-03-24T11:19:26;100235.0;;;14.59;71.27
68376;BME280;55318;52.068;5.188;2023-03-24T11:21:05;100250.0;;;14.55;71.67
68376;BME280;55318;52.068;5.188;2023-03-24T11:22:41;100245.0;;;14.45;70.94
68376;BME280;55318;52.068;5.188;2023-03-24T11:24:19;100243.0;;;14.43;72.91
68376;BME280;55318;52.068;5.188;2023-03-24T11:27:50;100249.0;;;14.43;73.25
68376;BME280;55318;52.068;5.188;2023-03-24T11:29:31;100241.0;;;14.36;72.98